You are not logged in, Click here to log in
ICAO: VTCC Country: 泰國清邁
Latitude: 18.7677 Longitude: 98.964
Total Arrivals: 3 Total Departures: 5
Latest Arrival: GC12 (RCTP-VTCC)Wen Han . Chien Latest Departure: SC1178 (VTCC-ZUCK)Wen Han . Chien
Scenery:
METAR : VTCC 210700Z 21004KT 9999 -RA FEW025CB BKN030 28/24 Q1006 RETS NOSIG

清邁國際機場